Copemish, Michigan
Current Conditions -  °F | °C
As of 5:15 PM on Monday 26 Jan 2015 (Local Time) from KFKS Reporting Station
Scattered Clouds Scattered Clouds  
Wind Chill: 24°   Ceiling: Unl
Heat Index: 24°   Visibility: 10mi
Dew Point:   Wind: 0mph
Humidity: 53%   Direction: NA
Pressure: 29.92"   Gusts: NA
Location:  44.48°N, 85.92°W
Report Text: KFKS 262215Z AUTO 00000KT 10SM SCT070 M04/M13 A2992 RMK AO2 T10451127
Loading
Personal Weather Stations






























Interactive Weather Map New forecast layout! Learn more

10-Day Weather Forecast

Advertisements
Track Severe Weather on mobile